Time;durP1;ratioP1;P1;durP2;ratioP2;P2;SDS_P1;SDS_P2;PMS_P1;PMS_P2;Temp;Humidity;BMP_temperature;BMP_pressure;BME280_temperature;BME280_humidity;BME280_pressure;Samples;Min_cycle;Max_cycle;Signal;HPM_P1;HPM_P2
2021/12/11 00:01:03;;;;;;;9.00;6.17;;;4.50;78.50;;;;;;4978271;28;20025;-80
2021/12/11 00:03:42;;;;;;;9.70;6.75;;;4.50;78.50;;;;;;4982036;28;20344;-80
2021/12/11 00:06:18;;;;;;;9.10;6.25;;;4.60;78.50;;;;;;4986896;28;20076;-80
2021/12/11 00:08:46;;;;;;;8.85;6.25;;;4.50;78.50;;;;;;4982921;28;20047;-80
2021/12/11 00:11:24;;;;;;;9.55;6.30;;;4.50;78.50;;;;;;4985384;28;20060;-79
2021/12/11 00:13:54;;;;;;;8.93;6.00;;;4.50;78.50;;;;;;4988043;28;20568;-81
2021/12/11 00:16:22;;;;;;;10.45;6.30;;;4.50;78.50;;;;;;4976862;28;20034;-80
2021/12/11 00:18:54;;;;;;;8.98;6.22;;;4.40;78.40;;;;;;4976479;28;20102;-81
2021/12/11 00:21:23;;;;;;;11.18;6.45;;;4.40;78.50;;;;;;4985188;28;20033;-81
2021/12/11 00:23:52;;;;;;;8.52;5.70;;;4.40;78.50;;;;;;4983910;28;20038;-81
2021/12/11 00:26:37;;;;;;;9.38;6.70;;;4.40;78.50;;;;;;4983499;28;20057;-80
2021/12/11 00:29:05;;;;;;;9.80;6.28;;;4.40;78.50;;;;;;4981423;28;20097;-79
2021/12/11 00:31:32;;;;;;;9.00;6.38;;;4.40;78.50;;;;;;4976748;28;20429;-80
2021/12/11 00:33:59;;;;;;;10.35;6.43;;;4.40;78.50;;;;;;4977414;28;20022;-81
2021/12/11 00:36:32;;;;;;;11.55;7.28;;;4.40;78.60;;;;;;4985951;28;20031;-80
2021/12/11 00:39:05;;;;;;;10.27;6.55;;;4.40;78.60;;;;;;4991332;28;20022;-81
2021/12/11 00:41:33;;;;;;;9.60;6.22;;;4.30;78.50;;;;;;4980424;28;20027;-80
2021/12/11 00:44:01;;;;;;;10.38;6.80;;;4.30;78.60;;;;;;4974780;28;20106;-81
2021/12/11 00:46:28;;;;;;;9.85;6.45;;;4.30;78.60;;;;;;4975416;28;20034;-80
2021/12/11 00:49:05;;;;;;;9.70;5.57;;;4.30;78.70;;;;;;4988921;28;20042;-80
2021/12/11 00:51:30;;;;;;;9.10;6.30;;;4.30;78.70;;;;;;4978821;28;20030;-81
2021/12/11 00:53:58;;;;;;;10.48;6.45;;;4.30;78.90;;;;;;4987487;28;20370;-81
2021/12/11 00:56:37;;;;;;;7.43;5.57;;;4.30;78.90;;;;;;4987481;28;20034;-82
2021/12/11 00:59:10;;;;;;;9.80;6.40;;;4.30;78.90;;;;;;4979305;28;20049;-82
2021/12/11 01:01:43;;;;;;;;;;;4.30;78.90;;;;;;4977829;28;20033;-82
2021/12/11 01:04:20;;;;;;;10.25;6.65;;;4.30;78.90;;;;;;4987893;28;19929;-81
2021/12/11 01:06:50;;;;;;;9.65;6.10;;;4.30;79.00;;;;;;4981119;28;20034;-82
2021/12/11 01:09:19;;;;;;;10.60;6.63;;;4.20;78.90;;;;;;4985396;28;20030;-81
2021/12/11 01:11:59;;;;;;;9.05;6.78;;;4.20;79.00;;;;;;4983319;28;20480;-81
2021/12/11 01:14:42;;;;;;;10.13;6.78;;;4.20;79.00;;;;;;4979231;28;20055;-80
2021/12/11 01:17:18;;;;;;;10.25;6.28;;;4.20;79.10;;;;;;4983720;28;20439;-80
2021/12/11 01:19:46;;;;;;;10.20;6.72;;;4.20;79.20;;;;;;4979846;28;20034;-80
2021/12/11 01:22:33;;;;;;;10.23;7.03;;;4.20;79.20;;;;;;4981502;28;20033;-80
2021/12/11 01:25:11;;;;;;;9.68;6.90;;;4.20;79.10;;;;;;4979632;28;20477;-81
2021/12/11 01:27:39;;;;;;;11.75;7.20;;;4.20;79.10;;;;;;4986505;28;20038;-80
2021/12/11 01:30:09;;;;;;;11.25;7.22;;;4.30;79.20;;;;;;4980670;28;20034;-80
2021/12/11 01:32:36;;;;;;;10.82;6.80;;;4.30;79.10;;;;;;4981006;28;20022;-80
2021/12/11 01:35:04;;;;;;;10.65;6.75;;;4.30;79.10;;;;;;4983470;28;20512;-80
2021/12/11 01:37:30;;;;;;;8.70;6.55;;;4.30;79.10;;;;;;4981035;28;20097;-80
2021/12/11 01:39:56;;;;;;;9.85;6.32;;;4.40;79.20;;;;;;4982241;28;20309;-79
2021/12/11 01:42:27;;;;;;;11.18;6.68;;;4.40;79.20;;;;;;4981106;28;20030;-82
2021/12/11 01:44:54;;;;;;;8.63;6.18;;;4.40;79.20;;;;;;4989550;28;20084;-80
2021/12/11 01:47:26;;;;;;;9.75;6.90;;;4.50;79.20;;;;;;4983467;28;20026;-80
2021/12/11 01:49:55;;;;;;;9.40;6.22;;;4.50;79.10;;;;;;4983699;28;20386;-80
2021/12/11 01:52:36;;;;;;;9.15;6.63;;;4.50;79.10;;;;;;4980077;28;20113;-80
2021/12/11 01:55:29;;;;;;;8.57;6.45;;;4.50;79.00;;;;;;4973591;28;20023;-79
2021/12/11 01:57:56;;;;;;;8.45;6.43;;;4.50;79.00;;;;;;4977677;28;20045;-80
2021/12/11 02:00:39;;;;;;;9.02;5.97;;;4.40;79.00;;;;;;4985426;28;20029;-83
2021/12/11 02:03:10;;;;;;;9.50;6.15;;;4.50;79.10;;;;;;4977310;28;20027;-81
2021/12/11 02:05:38;;;;;;;8.65;5.90;;;4.50;79.20;;;;;;4986183;28;20105;-83
2021/12/11 02:08:09;;;;;;;10.68;6.43;;;4.50;79.10;;;;;;4983441;28;20503;-80
2021/12/11 02:10:46;;;;;;;9.27;6.40;;;4.50;79.00;;;;;;4985040;28;20054;-81
2021/12/11 02:13:20;;;;;;;10.63;6.97;;;4.50;79.10;;;;;;4981989;28;20037;-81
2021/12/11 02:15:50;;;;;;;8.93;6.47;;;4.50;79.00;;;;;;4987293;28;20034;-80
2021/12/11 02:18:32;;;;;;;8.75;5.75;;;4.50;79.10;;;;;;4979428;28;20707;-81
2021/12/11 02:21:03;;;;;;;8.25;6.03;;;4.60;79.10;;;;;;4980589;28;20018;-83
2021/12/11 02:23:29;;;;;;;10.52;6.30;;;4.50;79.00;;;;;;4982897;28;20030;-81
2021/12/11 02:26:01;;;;;;;11.07;7.15;;;4.60;79.00;;;;;;4986935;28;20030;-82
2021/12/11 02:28:27;;;;;;;9.43;6.93;;;4.50;79.00;;;;;;4987334;28;20038;-82
2021/12/11 02:31:19;;;;;;;12.80;7.53;;;4.50;78.90;;;;;;4994256;28;20030;-81
2021/12/11 02:33:55;;;;;;;9.30;6.68;;;4.50;79.50;;;;;;4989991;28;20060;-81
2021/12/11 02:36:48;;;;;;;9.43;6.50;;;4.50;79.00;;;;;;4992844;28;20031;-81
2021/12/11 02:39:26;;;;;;;9.63;7.60;;;4.50;79.00;;;;;;4985153;28;20037;-81
2021/12/11 02:41:55;;;;;;;9.45;6.97;;;4.50;79.00;;;;;;4987022;28;20033;-80
2021/12/11 02:44:33;;;;;;;9.60;6.35;;;4.50;79.00;;;;;;4984145;28;20122;-81
2021/12/11 02:47:01;;;;;;;10.82;7.10;;;4.50;79.00;;;;;;4988266;28;20076;-82
2021/12/11 02:49:41;;;;;;;9.57;6.78;;;4.50;79.00;;;;;;4988230;28;20034;-78
2021/12/11 02:52:27;;;;;;;10.00;6.88;;;4.50;79.00;;;;;;4989493;28;20081;-79
2021/12/11 02:55:05;;;;;;;9.73;6.28;;;4.50;78.90;;;;;;4986370;28;20030;-78
2021/12/11 02:57:37;;;;;;;11.93;6.90;;;4.50;78.80;;;;;;4988410;28;20117;-77
2021/12/11 03:00:23;;;;;;;9.55;6.43;;;4.50;78.80;;;;;;4994130;28;20034;-78
2021/12/11 03:03:01;;;;;;;10.27;6.50;;;4.50;78.90;;;;;;4982612;28;20038;-78
2021/12/11 03:05:37;;;;;;;9.65;7.15;;;4.40;78.90;;;;;;4976182;28;20551;-78
2021/12/11 03:08:05;;;;;;;10.55;7.28;;;4.40;78.90;;;;;;4980153;28;20038;-79
2021/12/11 03:10:32;;;;;;;9.93;6.78;;;4.40;78.80;;;;;;4983040;28;20029;-79
2021/12/11 03:12:58;;;;;;;9.68;6.32;;;4.50;78.90;;;;;;4995006;28;20030;-78
2021/12/11 03:15:24;;;;;;;9.23;6.53;;;4.50;78.90;;;;;;4988188;28;20033;-79
2021/12/11 03:17:50;;;;;;;9.82;7.03;;;4.50;78.70;;;;;;4988716;28;20035;-79
2021/12/11 03:20:18;;;;;;;9.73;6.95;;;4.60;78.70;;;;;;4984965;28;20027;-78
2021/12/11 03:22:46;;;;;;;10.57;7.65;;;4.50;78.60;;;;;;4990070;28;20089;-78
2021/12/11 03:25:15;;;;;;;11.20;7.53;;;4.60;78.70;;;;;;4988069;28;20038;-78
2021/12/11 03:27:41;;;;;;;9.70;7.15;;;4.60;78.60;;;;;;4980220;28;20069;-79
2021/12/11 03:30:10;;;;;;;9.60;6.70;;;4.60;78.50;;;;;;4987008;28;20121;-79
2021/12/11 03:32:36;;;;;;;11.02;7.43;;;4.60;78.50;;;;;;4989690;28;20029;-79
2021/12/11 03:35:04;;;;;;;9.88;6.97;;;4.60;78.40;;;;;;4988611;28;20019;-78
2021/12/11 03:37:30;;;;;;;10.07;6.95;;;4.60;78.40;;;;;;4985297;28;20077;-79
2021/12/11 03:39:55;;;;;;;11.60;7.45;;;4.70;78.30;;;;;;4986222;28;20034;-78
2021/12/11 03:42:30;;;;;;;10.20;7.20;;;4.70;78.10;;;;;;4982601;28;20023;-78
2021/12/11 03:44:57;;;;;;;10.65;7.18;;;4.60;78.10;;;;;;4982484;28;20029;-79
2021/12/11 03:47:30;;;;;;;11.73;7.47;;;4.60;78.20;;;;;;4990296;28;20032;-78
2021/12/11 03:49:56;;;;;;;10.10;7.03;;;4.60;78.10;;;;;;4988377;28;20042;-78
2021/12/11 03:52:22;;;;;;;9.93;7.07;;;4.60;78.20;;;;;;4990545;28;20061;-78
2021/12/11 03:54:50;;;;;;;10.80;7.35;;;4.60;78.40;;;;;;4988699;28;20029;-78
2021/12/11 03:57:20;;;;;;;8.23;6.45;;;4.60;78.40;;;;;;4988015;28;20041;-80
2021/12/11 03:59:48;;;;;;;10.32;6.95;;;4.70;78.50;;;;;;4986474;28;20038;-79
2021/12/11 04:02:18;;;;;;;9.85;7.38;;;4.70;78.20;;;;;;4987290;28;20033;-81
2021/12/11 04:04:49;;;;;;;10.32;7.35;;;4.70;78.30;;;;;;4984346;28;20019;-81
2021/12/11 04:07:18;;;;;;;9.52;7.35;;;4.70;78.00;;;;;;4982069;28;20038;-80
2021/12/11 04:09:45;;;;;;;12.02;8.50;;;4.80;77.90;;;;;;4980469;28;20674;-80
2021/12/11 04:12:12;;;;;;;11.32;8.30;;;4.70;77.70;;;;;;4982201;28;20023;-80
2021/12/11 04:14:41;;;;;;;12.80;9.35;;;4.70;77.70;;;;;;4984958;28;20449;-79
2021/12/11 04:17:09;;;;;;;12.57;9.40;;;4.50;77.70;;;;;;4988492;28;20030;-79
2021/12/11 04:19:36;;;;;;;12.07;8.93;;;4.40;78.00;;;;;;4981441;28;21750;-80
2021/12/11 04:22:03;;;;;;;10.77;8.02;;;4.40;78.40;;;;;;4987564;28;20034;-79
2021/12/11 04:24:31;;;;;;;10.10;7.32;;;4.40;78.50;;;;;;4981919;28;20031;-79
2021/12/11 04:26:59;;;;;;;9.93;7.25;;;4.40;78.60;;;;;;4982546;28;20102;-79
2021/12/11 04:29:25;;;;;;;9.43;7.40;;;4.40;78.60;;;;;;4978145;28;20038;-80
2021/12/11 04:31:52;;;;;;;10.30;7.22;;;4.40;78.50;;;;;;4982583;28;20097;-83
2021/12/11 04:34:20;;;;;;;9.85;7.57;;;4.40;78.60;;;;;;4983434;28;20490;-80
2021/12/11 04:36:55;;;;;;;10.35;7.45;;;4.30;78.60;;;;;;4982865;28;20037;-80
2021/12/11 04:39:23;;;;;;;9.98;7.32;;;4.40;78.70;;;;;;4983985;28;20022;-80
2021/12/11 04:42:05;;;;;;;10.07;6.20;;;4.30;78.50;;;;;;4988262;28;20026;-79
2021/12/11 04:44:38;;;;;;;8.55;6.68;;;4.30;78.70;;;;;;4985346;28;20782;-78
2021/12/11 04:47:11;;;;;;;;;;;4.30;78.90;;;;;;4978576;28;20030;-78
2021/12/11 04:49:45;;;;;;;11.25;7.70;;;4.30;78.70;;;;;;4982267;28;19913;-79
2021/12/11 04:52:29;;;;;;;9.77;7.03;;;4.30;79.00;;;;;;4985289;28;20030;-81
2021/12/11 04:55:10;;;;;;;11.40;8.10;;;4.30;79.10;;;;;;4982749;28;20030;-80
2021/12/11 05:05:52;;;;;;;11.25;8.20;;;4.40;78.60;;;;;;4985870;28;20030;-80
2021/12/11 05:13:16;;;;;;;10.35;7.78;;;4.50;78.50;;;;;;4976142;28;20027;-79
2021/12/11 05:15:45;;;;;;;11.38;7.90;;;4.50;78.50;;;;;;4976684;28;20484;-79
2021/12/11 05:18:14;;;;;;;12.07;7.50;;;4.60;78.70;;;;;;4980797;28;20030;-80
2021/12/11 05:20:45;;;;;;;11.73;8.02;;;4.60;78.80;;;;;;4977053;28;20109;-80
2021/12/11 05:23:12;;;;;;;10.23;7.95;;;4.70;78.90;;;;;;4982064;28;20026;-80
2021/12/11 05:25:38;;;;;;;10.57;8.15;;;4.80;79.00;;;;;;4985060;28;20030;-79
2021/12/11 05:28:04;;;;;;;11.63;7.85;;;4.80;79.00;;;;;;4984971;28;20034;-79
2021/12/11 05:30:39;;;;;;;11.45;7.30;;;4.90;79.20;;;;;;4981261;28;20033;-80
2021/12/11 05:33:05;;;;;;;8.73;6.10;;;4.90;79.20;;;;;;4982568;28;20205;-80
2021/12/11 05:35:33;;;;;;;10.85;7.53;;;5.00;79.20;;;;;;4988092;28;20034;-80
2021/12/11 05:38:00;;;;;;;10.25;7.35;;;5.00;79.30;;;;;;4979294;28;20081;-80
2021/12/11 05:40:27;;;;;;;10.10;7.10;;;5.00;79.30;;;;;;4983894;28;20057;-80
2021/12/11 05:42:54;;;;;;;8.52;6.00;;;5.00;79.40;;;;;;4988545;28;20045;-80
2021/12/11 05:45:19;;;;;;;10.63;7.70;;;5.00;79.40;;;;;;4979429;28;20041;-79
2021/12/11 05:47:45;;;;;;;9.10;6.03;;;5.00;79.40;;;;;;4981489;28;20513;-80
2021/12/11 05:50:16;;;;;;;12.63;7.30;;;5.00;79.40;;;;;;4980178;28;20034;-82
2021/12/11 05:52:42;;;;;;;11.68;7.82;;;5.00;79.50;;;;;;4980850;28;20057;-83
2021/12/11 05:55:10;;;;;;;8.00;5.18;;;5.00;79.50;;;;;;4979106;28;20474;-82
2021/12/11 05:57:37;;;;;;;9.68;6.65;;;5.00;79.60;;;;;;4985653;28;20022;-83
2021/12/11 06:00:08;;;;;;;14.02;6.13;;;5.00;79.60;;;;;;4983886;28;20500;-84
2021/12/11 06:02:34;;;;;;;8.63;5.75;;;5.00;79.80;;;;;;4986499;28;20241;-83
2021/12/11 06:05:00;;;;;;;10.07;4.80;;;4.90;79.70;;;;;;4975820;28;20077;-83
2021/12/11 06:07:28;;;;;;;9.32;6.07;;;4.90;79.80;;;;;;4975978;28;20034;-83
2021/12/11 06:10:01;;;;;;;11.85;6.10;;;4.90;79.80;;;;;;4979459;28;20432;-82
2021/12/11 06:12:27;;;;;;;7.88;5.28;;;4.90;79.90;;;;;;4980540;28;20191;-83
2021/12/11 06:14:53;;;;;;;8.63;5.90;;;5.00;79.90;;;;;;4981641;28;20118;-83
2021/12/11 06:17:23;;;;;;;11.38;6.57;;;5.00;79.90;;;;;;4983634;28;20031;-83
2021/12/11 06:19:52;;;;;;;10.88;6.57;;;5.00;79.90;;;;;;4976740;28;20031;-83
2021/12/11 06:22:24;;;;;;;8.60;6.30;;;4.90;79.80;;;;;;4981340;28;20030;-81
2021/12/11 06:24:52;;;;;;;6.75;5.38;;;4.90;79.90;;;;;;4981108;28;20572;-80
2021/12/11 06:27:17;;;;;;;8.00;5.95;;;4.90;79.80;;;;;;4982593;28;20027;-80
2021/12/11 06:29:43;;;;;;;7.75;5.40;;;4.90;79.90;;;;;;4981284;28;20090;-80
2021/12/11 06:32:09;;;;;;;7.53;5.10;;;4.90;80.00;;;;;;4981017;28;20027;-80
2021/12/11 06:34:36;;;;;;;7.90;5.75;;;5.00;80.00;;;;;;4979780;28;20023;-82
2021/12/11 06:37:04;;;;;;;8.95;5.95;;;5.00;79.90;;;;;;4979867;28;20030;-80
2021/12/11 06:39:29;;;;;;;6.47;4.95;;;5.00;79.90;;;;;;4978819;28;20037;-80
2021/12/11 06:42:00;;;;;;;7.72;5.97;;;5.00;79.90;;;;;;4984242;28;20026;-80
2021/12/11 06:44:28;;;;;;;6.68;4.53;;;5.10;80.00;;;;;;4980184;28;20038;-80
2021/12/11 06:46:58;;;;;;;8.48;5.53;;;5.10;80.00;;;;;;4973762;28;20015;-80
2021/12/11 06:49:29;;;;;;;6.82;5.38;;;5.10;80.00;;;;;;4975697;28;20070;-80
2021/12/11 06:51:55;;;;;;;9.25;6.68;;;5.10;80.70;;;;;;4980569;28;20030;-81
2021/12/11 06:54:22;;;;;;;9.25;6.53;;;5.10;80.10;;;;;;4984418;28;20378;-79
2021/12/11 06:56:48;;;;;;;6.85;5.30;;;5.00;80.20;;;;;;4983882;28;20673;-79
2021/12/11 06:59:14;;;;;;;7.88;5.78;;;5.00;80.30;;;;;;4987945;28;20030;-80
2021/12/11 07:01:40;;;;;;;9.52;6.40;;;5.00;80.20;;;;;;4976522;28;20118;-81
2021/12/11 07:04:09;;;;;;;8.32;6.50;;;5.00;80.10;;;;;;4981114;28;20478;-80
2021/12/11 07:06:37;;;;;;;10.05;6.20;;;5.00;80.20;;;;;;4979618;28;20031;-79
2021/12/11 07:09:06;;;;;;;10.90;7.05;;;4.90;80.30;;;;;;4979855;28;20077;-81
2021/12/11 07:11:33;;;;;;;9.30;6.35;;;4.80;80.30;;;;;;4981177;28;20066;-80
2021/12/11 07:13:59;;;;;;;9.60;6.88;;;4.90;80.50;;;;;;4975916;28;20046;-83
2021/12/11 07:16:24;;;;;;;9.68;6.47;;;4.80;80.50;;;;;;4985205;28;20051;-80
2021/12/11 07:18:50;;;;;;;10.80;7.22;;;4.80;80.50;;;;;;4989305;28;20045;-79
2021/12/11 07:21:16;;;;;;;7.80;5.70;;;4.70;80.40;;;;;;4984949;28;20047;-79
2021/12/11 07:26:04;;;;;;;12.43;8.10;;;4.50;80.10;;;;;;5085441;27;20455;-78
2021/12/11 07:28:30;;;;;;;9.40;6.78;;;4.40;81.00;;;;;;5007443;28;20025;-81
2021/12/11 07:30:58;;;;;;;9.52;6.68;;;4.40;81.30;;;;;;5065592;28;20036;-78
2021/12/11 07:33:24;;;;;;;7.47;4.93;;;4.50;81.50;;;;;;5077713;28;20090;-79
2021/12/11 07:35:51;;;;;;;8.90;6.28;;;4.40;81.40;;;;;;5080982;28;20036;-79
2021/12/11 07:38:18;;;;;;;10.57;6.88;;;4.40;81.40;;;;;;5083891;28;20036;-80
2021/12/11 07:40:49;;;;;;;12.73;8.43;;;4.30;81.50;;;;;;5081603;28;20025;-77
2021/12/11 07:43:16;;;;;;;9.15;6.03;;;4.30;81.80;;;;;;5080936;28;20042;-76
2021/12/11 07:45:43;;;;;;;11.25;8.02;;;4.30;82.00;;;;;;5080665;28;20085;-76
2021/12/11 07:48:09;;;;;;;7.78;4.97;;;4.30;82.00;;;;;;5081823;28;20513;-76
2021/12/11 07:50:35;;;;;;;8.60;6.20;;;4.30;82.00;;;;;;5076979;28;20387;-76
2021/12/11 07:53:01;;;;;;;8.77;6.50;;;4.30;82.00;;;;;;5080661;28;20496;-76
2021/12/11 07:55:26;;;;;;;10.27;6.78;;;4.30;82.00;;;;;;5080757;28;20033;-77
2021/12/11 07:57:53;;;;;;;9.13;5.97;;;4.20;82.20;;;;;;5079550;28;20039;-77
2021/12/11 08:00:22;;;;;;;9.88;7.35;;;4.20;82.30;;;;;;5080284;28;20028;-76
2021/12/11 08:02:48;;;;;;;6.90;4.53;;;4.20;82.50;;;;;;5083770;28;20095;-77
2021/12/11 08:05:14;;;;;;;9.45;5.93;;;4.30;82.60;;;;;;5079663;28;20116;-76
2021/12/11 08:07:41;;;;;;;9.27;6.70;;;4.30;82.50;;;;;;5081108;28;20032;-76
2021/12/11 08:10:11;;;;;;;7.68;5.53;;;4.30;82.50;;;;;;5078145;28;20490;-76
2021/12/11 08:12:37;;;;;;;13.40;8.60;;;4.20;82.50;;;;;;5078635;28;20514;-77
2021/12/11 08:15:05;;;;;;;11.05;7.70;;;4.20;82.70;;;;;;5075780;28;20032;-78
2021/12/11 08:17:31;;;;;;;8.10;5.85;;;4.20;82.70;;;;;;5079359;28;20028;-78
2021/12/11 08:19:57;;;;;;;11.90;7.47;;;4.20;82.80;;;;;;5075965;28;20190;-78
2021/12/11 08:22:22;;;;;;;7.65;5.30;;;4.30;82.90;;;;;;5077343;28;20024;-78
2021/12/11 08:24:48;;;;;;;12.30;7.82;;;4.20;82.90;;;;;;5068327;28;20032;-78
2021/12/11 08:27:18;;;;;;;10.73;7.60;;;4.30;82.90;;;;;;5074199;28;20059;-78
2021/12/11 08:29:47;;;;;;;10.93;7.07;;;4.30;82.90;;;;;;5078203;28;20067;-78
2021/12/11 08:32:13;;;;;;;14.70;9.82;;;4.30;82.80;;;;;;5074754;28;20031;-77
2021/12/11 08:34:40;;;;;;;15.88;10.43;;;4.30;82.80;;;;;;5076731;28;20081;-77
2021/12/11 08:37:10;;;;;;;14.48;8.75;;;4.30;82.90;;;;;;5059112;28;20032;-77
2021/12/11 08:39:37;;;;;;;10.93;7.32;;;4.30;82.90;;;;;;5059202;28;20032;-78
2021/12/11 08:42:05;;;;;;;11.85;7.45;;;4.40;82.80;;;;;;5061203;28;20029;-78
2021/12/11 08:44:35;;;;;;;10.85;6.85;;;4.40;82.70;;;;;;5061782;28;20041;-75
2021/12/11 08:47:07;;;;;;;13.07;8.30;;;4.40;82.70;;;;;;5066479;28;20036;-76
2021/12/11 08:49:34;;;;;;;15.20;8.95;;;4.40;82.70;;;;;;5064526;28;20028;-76
2021/12/11 08:52:22;;;;;;;12.05;8.20;;;4.40;82.70;;;;;;5064504;28;20082;-76
2021/12/11 08:54:48;;;;;;;11.70;7.80;;;4.50;82.80;;;;;;5061780;28;20056;-76
2021/12/11 08:57:19;;;;;;;13.35;8.10;;;4.50;82.70;;;;;;5062164;28;20048;-76
2021/12/11 08:59:49;;;;;;;14.88;10.27;;;4.60;82.90;;;;;;5062843;28;20036;-76
2021/12/11 09:02:19;;;;;;;17.13;11.73;;;4.60;82.70;;;;;;5063732;28;20531;-77
2021/12/11 09:04:58;;;;;;;13.75;9.30;;;4.50;82.80;;;;;;5064227;28;20112;-77
2021/12/11 09:07:35;;;;;;;14.38;9.57;;;4.50;82.90;;;;;;5067169;28;20032;-76
2021/12/11 09:10:11;;;;;;;13.35;9.27;;;4.50;82.90;;;;;;5062196;28;20037;-76
2021/12/11 09:12:42;;;;;;;14.18;9.20;;;4.50;83.00;;;;;;5064766;28;20031;-76
2021/12/11 09:15:37;;;;;;;16.67;11.02;;;4.60;83.10;;;;;;5065164;28;20012;-75
2021/12/11 09:18:07;;;;;;;14.02;8.95;;;4.50;83.00;;;;;;5066230;28;20135;-76
2021/12/11 09:20:41;;;;;;;12.60;8.45;;;4.50;83.20;;;;;;5064827;28;20052;-76
2021/12/11 09:23:24;;;;;;;15.52;9.35;;;4.50;83.30;;;;;;5065755;28;20651;-76
2021/12/11 09:25:53;;;;;;;12.27;7.93;;;4.60;83.50;;;;;;5067634;28;20036;-76
2021/12/11 09:28:26;;;;;;;13.68;9.27;;;4.60;83.50;;;;;;5065459;28;20097;-76
2021/12/11 09:31:08;;;;;;;13.18;8.23;;;4.60;83.50;;;;;;5064553;28;20032;-75
2021/12/11 09:33:39;;;;;;;14.70;9.07;;;4.70;83.50;;;;;;5059806;28;20499;-76
2021/12/11 09:36:12;;;;;;;13.27;8.25;;;4.70;83.50;;;;;;5065135;28;20048;-75
2021/12/11 09:38:41;;;;;;;16.35;8.93;;;4.70;83.40;;;;;;5063596;28;20037;-77
2021/12/11 09:41:21;;;;;;;14.73;8.55;;;4.80;83.40;;;;;;5067647;28;20024;-76
2021/12/11 09:43:49;;;;;;;16.40;8.30;;;4.80;83.40;;;;;;5069188;28;20111;-77
2021/12/11 09:46:23;;;;;;;12.75;7.55;;;4.80;83.40;;;;;;5065596;28;20036;-75
2021/12/11 09:48:51;;;;;;;12.23;8.02;;;4.90;83.40;;;;;;5064945;28;20037;-76
2021/12/11 09:51:21;;;;;;;11.40;7.60;;;4.90;83.20;;;;;;5066381;28;20052;-76
2021/12/11 09:53:54;;;;;;;9.98;6.55;;;5.00;83.70;;;;;;5063819;28;20024;-76
2021/12/11 09:56:31;;;;;;;;;;;5.00;83.30;;;;;;5064710;28;20040;-76
2021/12/11 09:58:59;;;;;;;10.07;6.97;;;5.00;83.20;;;;;;5066866;28;19959;-77
2021/12/11 10:01:32;;;;;;;15.07;8.60;;;5.10;83.20;;;;;;5067156;28;20111;-76
2021/12/11 10:04:16;;;;;;;13.40;8.23;;;5.10;83.20;;;;;;5064516;28;20036;-77
2021/12/11 10:07:12;;;;;;;11.25;7.45;;;5.20;83.30;;;;;;5063232;28;20048;-78
2021/12/11 10:09:46;;;;;;;14.48;8.68;;;5.20;83.20;;;;;;5060663;28;20483;-79
2021/12/11 10:12:21;;;;;;;14.20;8.63;;;5.30;83.20;;;;;;5066806;28;20040;-77
2021/12/11 10:14:57;;;;;;;12.18;8.10;;;5.20;83.20;;;;;;5063741;28;20035;-77
2021/12/11 10:17:30;;;;;;;12.88;8.30;;;5.30;83.90;;;;;;5066620;28;20028;-77
2021/12/11 10:19:58;;;;;;;;;;;5.40;83.30;;;;;;5063556;28;20036;-77
2021/12/11 10:22:32;;;;;;;13.70;7.50;;;5.40;83.20;;;;;;5065900;28;19908;-77
2021/12/11 10:24:59;;;;;;;14.88;7.78;;;5.40;83.20;;;;;;5064846;28;20066;-77
2021/12/11 10:27:28;;;;;;;14.43;7.97;;;5.40;83.20;;;;;;5061193;28;20071;-77
2021/12/11 10:29:55;;;;;;;16.75;7.93;;;5.40;83.30;;;;;;5064553;28;20086;-77
2021/12/11 10:32:25;;;;;;;17.73;8.35;;;5.50;83.40;;;;;;5065740;28;20026;-77
2021/12/11 10:34:55;;;;;;;18.83;7.65;;;5.50;83.40;;;;;;5064719;28;20021;-77
2021/12/11 10:37:30;;;;;;;23.77;7.72;;;5.50;83.40;;;;;;5064426;28;20020;-77
2021/12/11 10:39:59;;;;;;;12.63;6.13;;;5.60;83.40;;;;;;5064492;28;20024;-79
2021/12/11 10:42:26;;;;;;;16.85;8.00;;;5.60;83.40;;;;;;5062156;28;20081;-79
2021/12/11 10:44:56;;;;;;;11.70;6.65;;;5.60;83.30;;;;;;5063951;28;20029;-78
2021/12/11 10:47:33;;;;;;;18.25;7.43;;;5.60;83.40;;;;;;5066211;28;20036;-78
2021/12/11 10:50:00;;;;;;;11.77;6.45;;;5.60;84.00;;;;;;5062239;28;20086;-78
2021/12/11 10:52:29;;;;;;;21.20;7.22;;;5.60;83.40;;;;;;5064344;28;20035;-77
2021/12/11 10:55:00;;;;;;;30.10;6.55;;;5.70;83.50;;;;;;5065826;28;20095;-78
2021/12/11 10:57:26;;;;;;;23.42;6.35;;;5.70;83.50;;;;;;5067393;28;20032;-78
2021/12/11 10:59:55;;;;;;;24.33;6.65;;;5.70;83.50;;;;;;5067728;28;20020;-78
2021/12/11 11:02:27;;;;;;;17.20;6.32;;;5.60;83.40;;;;;;5064348;28;20052;-78
2021/12/11 11:04:59;;;;;;;11.90;5.32;;;5.70;83.60;;;;;;5064354;28;20119;-78
2021/12/11 11:07:27;;;;;;;27.13;6.53;;;5.70;83.60;;;;;;5064655;28;20016;-78
2021/12/11 11:09:57;;;;;;;27.85;6.63;;;5.60;83.60;;;;;;5067072;28;20044;-77
2021/12/11 11:12:24;;;;;;;11.05;4.65;;;5.60;83.60;;;;;;5061050;28;20036;-78
2021/12/11 11:14:53;;;;;;;20.85;6.28;;;5.60;83.60;;;;;;5065062;28;20124;-78
2021/12/11 11:17:21;;;;;;;27.42;6.25;;;5.60;83.70;;;;;;5064165;28;20095;-78
2021/12/11 11:19:49;;;;;;;17.60;5.30;;;5.60;83.80;;;;;;5063192;28;20044;-77
2021/12/11 11:22:22;;;;;;;13.80;6.40;;;5.60;83.80;;;;;;5062325;28;20021;-77
2021/12/11 11:25:13;;;;;;;16.63;6.22;;;5.60;83.80;;;;;;5056659;28;20127;-79
2021/12/11 11:27:42;;;;;;;18.63;5.68;;;5.60;83.90;;;;;;5061292;28;20086;-79
2021/12/11 11:30:13;;;;;;;20.02;4.93;;;5.60;83.90;;;;;;5064173;28;20127;-79
2021/12/11 11:32:39;;;;;;;13.63;5.70;;;5.60;83.80;;;;;;5063344;28;20025;-78
2021/12/11 11:35:12;;;;;;;8.55;5.45;;;5.60;83.70;;;;;;5058216;28;20016;-78
2021/12/11 11:37:39;;;;;;;14.45;5.57;;;5.70;83.80;;;;;;5063370;28;20124;-79
2021/12/11 11:40:08;;;;;;;11.82;5.70;;;5.70;83.90;;;;;;5060754;28;20684;-78
2021/12/11 11:42:35;;;;;;;15.80;5.70;;;5.70;83.90;;;;;;5063366;28;20033;-78
2021/12/11 11:45:02;;;;;;;18.33;5.80;;;5.70;83.80;;;;;;5064541;28;20648;-78
2021/12/11 11:47:28;;;;;;;15.57;5.55;;;5.70;83.80;;;;;;5062701;28;20099;-78
2021/12/11 11:49:58;;;;;;;10.25;5.78;;;5.80;83.80;;;;;;5059037;28;20028;-78
2021/12/11 11:52:24;;;;;;;13.52;5.78;;;5.70;83.70;;;;;;5063889;28;20047;-79
2021/12/11 11:54:53;;;;;;;14.70;5.85;;;5.70;83.80;;;;;;5065060;28;20031;-78
2021/12/11 11:57:32;;;;;;;22.30;5.40;;;5.70;83.80;;;;;;5058237;28;20039;-78
2021/12/11 11:59:59;;;;;;;16.75;5.85;;;5.80;83.90;;;;;;5061626;28;20032;-78
2021/12/11 12:02:28;;;;;;;10.95;5.20;;;5.80;83.90;;;;;;5064696;28;20025;-78
2021/12/11 12:04:56;;;;;;;14.63;5.95;;;5.80;83.80;;;;;;5061941;28;20036;-78
2021/12/11 12:07:27;;;;;;;10.10;5.80;;;5.80;83.80;;;;;;5066095;28;20440;-78
2021/12/11 12:09:54;;;;;;;21.17;5.97;;;5.90;83.80;;;;;;5066298;28;20052;-77
2021/12/11 12:12:22;;;;;;;11.10;5.53;;;5.90;83.80;;;;;;5069984;28;20132;-79
2021/12/11 12:14:50;;;;;;;7.18;3.80;;;6.00;83.70;;;;;;5068222;28;20024;-78
2021/12/11 12:17:19;;;;;;;14.48;5.75;;;6.00;83.70;;;;;;5063336;28;20039;-78
2021/12/11 12:19:47;;;;;;;11.38;5.50;;;5.90;83.60;;;;;;5069041;28;20105;-78
2021/12/11 12:22:14;;;;;;;12.45;5.68;;;6.00;83.80;;;;;;5067059;28;20017;-77
2021/12/11 12:24:42;;;;;;;13.35;4.75;;;5.90;83.80;;;;;;5065524;28;20036;-78
2021/12/11 12:27:11;;;;;;;14.10;5.32;;;6.00;83.90;;;;;;5066301;28;20036;-78
2021/12/11 12:29:39;;;;;;;12.70;6.15;;;5.90;83.80;;;;;;5063459;28;20146;-76
2021/12/11 12:32:16;;;;;;;9.73;6.25;;;5.90;83.90;;;;;;5068143;28;20025;-76
2021/12/11 12:34:44;;;;;;;14.05;6.05;;;5.90;83.90;;;;;;5066741;28;20055;-76
2021/12/11 12:37:11;;;;;;;4.07;3.20;;;5.90;84.00;;;;;;5065322;28;20128;-77
2021/12/11 12:39:41;;;;;;;10.85;6.32;;;5.90;84.10;;;;;;5064107;28;20473;-76
2021/12/11 12:42:26;;;;;;;10.98;6.35;;;5.90;84.10;;;;;;5065238;28;20016;-77
2021/12/11 12:45:01;;;;;;;11.70;5.50;;;5.90;84.20;;;;;;5064970;28;20071;-78
2021/12/11 12:47:31;;;;;;;7.72;4.28;;;5.90;84.20;;;;;;5064991;28;20023;-77
2021/12/11 12:49:59;;;;;;;6.13;4.35;;;6.00;84.20;;;;;;5066185;28;20061;-77
2021/12/11 12:52:36;;;;;;;10.60;6.20;;;6.00;84.20;;;;;;5065200;28;20129;-77
2021/12/11 12:55:09;;;;;;;5.88;4.00;;;6.00;84.20;;;;;;5064667;28;20048;-77
2021/12/11 12:57:39;;;;;;;7.68;4.85;;;6.00;84.20;;;;;;5069433;28;20028;-78
2021/12/11 13:00:15;;;;;;;8.18;5.05;;;6.00;84.20;;;;;;5060873;28;20301;-77
2021/12/11 13:02:42;;;;;;;8.45;5.28;;;6.10;84.20;;;;;;5064795;28;20017;-79
2021/12/11 13:05:16;;;;;;;20.45;8.60;;;6.10;84.20;;;;;;5063564;28;20047;-77
2021/12/11 13:07:42;;;;;;;11.88;8.20;;;6.00;84.20;;;;;;5067500;28;20074;-78
2021/12/11 13:10:14;;;;;;;8.07;5.70;;;5.90;84.40;;;;;;5067903;28;20673;-77
2021/12/11 13:12:44;;;;;;;8.25;5.40;;;6.00;84.60;;;;;;5067907;28;20029;-78
2021/12/11 13:15:16;;;;;;;9.50;6.35;;;6.10;84.50;;;;;;5063226;28;20033;-76
2021/12/11 13:17:46;;;;;;;11.60;6.50;;;6.10;84.40;;;;;;5067627;28;20021;-75
2021/12/11 13:20:21;;;;;;;12.20;6.85;;;6.10;84.40;;;;;;5060358;28;20025;-77
2021/12/11 13:22:48;;;;;;;12.05;7.28;;;6.10;85.00;;;;;;5066946;28;20017;-79
2021/12/11 13:25:21;;;;;;;8.82;5.80;;;6.20;84.40;;;;;;5066478;28;20079;-77